Time;durP1;ratioP1;P1;durP2;ratioP2;P2;SDS_P1;SDS_P2;PMS_P1;PMS_P2;Temp;Humidity;BMP_temperature;BMP_pressure;BME280_temperature;BME280_humidity;BME280_pressure;Samples;Min_cycle;Max_cycle;Signal;HPM_P1;HPM_P2
2023/09/19 00:01:45;;;;;;;13.57;2.75;;;14.60;99.90;;;;;;5084628;28;20044;-83
2023/09/19 00:04:14;;;;;;;12.30;2.60;;;14.60;99.90;;;;;;5090574;28;20063;-84
2023/09/19 00:06:40;;;;;;;17.00;3.28;;;14.60;99.90;;;;;;5079936;28;20075;-84
2023/09/19 00:09:10;;;;;;;8.07;2.70;;;14.50;99.90;;;;;;5072545;28;20084;-83
2023/09/19 00:11:37;;;;;;;13.88;3.00;;;14.50;99.90;;;;;;5077639;28;20044;-80
2023/09/19 00:14:04;;;;;;;14.35;2.95;;;14.50;99.90;;;;;;5070011;28;20052;-81
2023/09/19 00:16:32;;;;;;;11.60;2.70;;;14.40;99.90;;;;;;5094579;28;20036;-82
2023/09/19 00:18:59;;;;;;;;;;;14.40;99.90;;;;;;5075562;28;20051;-83
2023/09/19 00:21:24;;;;;;;11.93;2.70;;;14.40;99.90;;;;;;5069424;28;19924;-84
2023/09/19 00:23:51;;;;;;;9.52;2.58;;;14.40;99.90;;;;;;5065556;28;20047;-82
2023/09/19 00:26:18;;;;;;;16.80;3.28;;;14.40;99.90;;;;;;5076619;28;20096;-82
2023/09/19 00:28:44;;;;;;;15.27;2.67;;;14.30;99.90;;;;;;5083092;28;20116;-81
2023/09/19 00:31:13;;;;;;;13.50;2.90;;;14.40;99.90;;;;;;5079335;28;20070;-82
2023/09/19 00:33:38;;;;;;;10.77;2.63;;;14.30;99.90;;;;;;5085985;28;20467;-83
2023/09/19 00:36:05;;;;;;;13.35;3.17;;;14.30;99.90;;;;;;5060436;28;20072;-82
2023/09/19 00:38:31;;;;;;;11.55;2.78;;;14.30;99.90;;;;;;5061189;28;20117;-82
2023/09/19 00:40:59;;;;;;;11.77;2.33;;;14.30;99.90;;;;;;5069353;28;20049;-82
2023/09/19 00:43:29;;;;;;;11.27;2.97;;;14.30;99.90;;;;;;5093726;28;20044;-83
2023/09/19 00:45:56;;;;;;;14.48;3.00;;;14.20;99.90;;;;;;5086352;28;20025;-82
2023/09/19 00:48:22;;;;;;;12.77;3.20;;;14.20;99.90;;;;;;5094713;28;20028;-84
2023/09/19 00:50:49;;;;;;;12.43;2.60;;;14.20;99.90;;;;;;5075123;28;20449;-81
2023/09/19 00:53:19;;;;;;;16.48;3.25;;;14.30;99.90;;;;;;5094414;28;20032;-84
2023/09/19 00:55:49;;;;;;;8.13;2.60;;;14.10;99.90;;;;;;5082214;28;20032;-83
2023/09/19 00:58:17;;;;;;;15.48;2.97;;;14.10;99.90;;;;;;5069729;28;20108;-82
2023/09/19 01:00:44;;;;;;;14.77;2.95;;;14.10;99.90;;;;;;5079506;28;20037;-82
2023/09/19 01:03:13;;;;;;;18.45;3.20;;;14.10;99.90;;;;;;5087401;28;20065;-81
2023/09/19 01:05:39;;;;;;;10.93;2.85;;;14.00;99.90;;;;;;5082424;28;20080;-84
2023/09/19 01:08:06;;;;;;;8.52;2.88;;;14.00;99.90;;;;;;5078873;28;20047;-83
2023/09/19 01:10:33;;;;;;;13.98;2.97;;;14.00;99.90;;;;;;5081827;28;20130;-81
2023/09/19 01:13:29;;;;;;;14.30;2.80;;;14.00;99.90;;;;;;5075052;28;20080;-83
2023/09/19 01:16:07;;;;;;;13.57;2.30;;;13.90;99.90;;;;;;5068684;28;20048;-84
2023/09/19 01:18:56;;;;;;;15.10;3.35;;;13.90;99.90;;;;;;5071212;28;20445;-84
2023/09/19 01:21:34;;;;;;;14.20;3.13;;;13.90;99.90;;;;;;5074152;28;20057;-84
2023/09/19 01:24:39;;;;;;;8.77;2.55;;;13.80;99.90;;;;;;5079686;28;20047;-84
2023/09/19 01:27:20;;;;;;;11.32;2.53;;;13.80;99.90;;;;;;5087287;28;20051;-83
2023/09/19 01:29:49;;;;;;;13.43;2.70;;;13.70;99.90;;;;;;5103391;27;20556;-85
2023/09/19 01:32:21;;;;;;;14.52;2.63;;;13.70;99.90;;;;;;5074194;28;20040;-82
2023/09/19 01:34:56;;;;;;;11.55;3.58;;;13.70;99.90;;;;;;5084331;28;20060;-83
2023/09/19 01:37:25;;;;;;;15.70;3.67;;;13.70;99.90;;;;;;5068972;28;20045;-84
2023/09/19 01:39:59;;;;;;;13.88;3.10;;;13.70;99.90;;;;;;5073629;28;20048;-83
2023/09/19 01:42:31;;;;;;;13.00;2.70;;;13.60;99.90;;;;;;5095115;28;20082;-83
2023/09/19 01:45:08;;;;;;;20.52;2.88;;;13.60;99.90;;;;;;5067232;28;20053;-84
2023/09/19 01:47:37;;;;;;;13.85;2.90;;;13.60;99.90;;;;;;5063592;28;20095;-83
2023/09/19 01:50:25;;;;;;;11.48;3.15;;;13.60;99.90;;;;;;5068020;28;20037;-84
2023/09/19 01:53:04;;;;;;;12.18;2.90;;;13.60;99.90;;;;;;5072051;28;20081;-84
2023/09/19 01:55:30;;;;;;;;;;;13.50;99.90;;;;;;5078683;28;20048;-84
2023/09/19 01:58:12;;;;;;;10.45;2.60;;;13.50;99.90;;;;;;5064748;28;19927;-83
2023/09/19 02:00:42;;;;;;;13.40;3.10;;;13.50;99.90;;;;;;5063455;28;20065;-83
2023/09/19 02:03:09;;;;;;;12.60;2.80;;;13.40;99.90;;;;;;5076196;28;20064;-83
2023/09/19 02:05:35;;;;;;;13.43;2.85;;;13.40;99.90;;;;;;5080428;28;20104;-82
2023/09/19 02:08:01;;;;;;;14.20;2.88;;;13.40;99.90;;;;;;5094516;28;20052;-81
2023/09/19 02:10:27;;;;;;;17.58;3.30;;;13.40;99.90;;;;;;5082291;28;20072;-84
2023/09/19 02:12:53;;;;;;;12.73;2.63;;;13.40;99.90;;;;;;5091942;28;20044;-83
2023/09/19 02:15:19;;;;;;;13.15;2.90;;;13.40;99.90;;;;;;5117857;28;20117;-83
2023/09/19 02:17:45;;;;;;;13.13;3.03;;;13.40;99.90;;;;;;5077715;28;20044;-82
2023/09/19 02:20:14;;;;;;;10.95;2.85;;;13.30;99.90;;;;;;5101163;28;20041;-82
2023/09/19 02:22:44;;;;;;;14.82;2.70;;;13.30;99.90;;;;;;5079556;28;20041;-82
2023/09/19 02:25:10;;;;;;;14.10;2.50;;;13.30;99.90;;;;;;5068172;28;20045;-81
2023/09/19 02:27:39;;;;;;;11.65;3.13;;;13.30;99.90;;;;;;5074477;28;20043;-83
2023/09/19 02:30:11;;;;;;;14.95;3.13;;;13.30;99.90;;;;;;5089875;28;20048;-83
2023/09/19 02:32:38;;;;;;;14.40;4.15;;;13.10;99.90;;;;;;5091996;28;20036;-84
2023/09/19 02:35:06;;;;;;;11.35;3.60;;;13.20;99.90;;;;;;5112594;28;20072;-84
2023/09/19 02:37:33;;;;;;;11.32;2.17;;;13.20;99.90;;;;;;5080380;28;20041;-82
2023/09/19 02:39:58;;;;;;;12.80;2.53;;;13.10;99.90;;;;;;5069518;28;20517;-83
2023/09/19 02:42:24;;;;;;;9.07;2.80;;;13.90;99.90;;;;;;5080815;28;20048;-83
2023/09/19 02:44:50;;;;;;;12.52;3.03;;;13.10;99.90;;;;;;5081212;28;20051;-84
2023/09/19 02:47:16;;;;;;;12.88;2.47;;;13.00;99.90;;;;;;5083977;28;20039;-82
2023/09/19 02:49:42;;;;;;;10.68;2.58;;;13.00;99.90;;;;;;5074524;28;20037;-84
2023/09/19 02:52:08;;;;;;;11.48;2.95;;;13.00;99.90;;;;;;5079523;28;20399;-83
2023/09/19 02:54:36;;;;;;;14.02;2.85;;;13.10;99.90;;;;;;5060102;28;20071;-83
2023/09/19 02:57:09;;;;;;;10.85;2.60;;;13.00;99.90;;;;;;5108879;27;20474;-82
2023/09/19 02:59:37;;;;;;;10.15;2.25;;;13.00;99.90;;;;;;5073172;28;20041;-83
2023/09/19 03:02:04;;;;;;;14.07;2.92;;;12.90;99.90;;;;;;5080060;28;20115;-82
2023/09/19 03:04:30;;;;;;;16.60;3.22;;;12.90;99.90;;;;;;5079140;28;20498;-83
2023/09/19 03:07:00;;;;;;;13.10;3.08;;;12.90;99.90;;;;;;5070594;28;20051;-83
2023/09/19 03:09:28;;;;;;;15.30;2.97;;;13.10;99.90;;;;;;5108398;28;20070;-83
2023/09/19 03:11:54;;;;;;;10.80;2.78;;;12.90;99.90;;;;;;5076135;28;20375;-83
2023/09/19 03:14:20;;;;;;;12.15;2.72;;;13.00;99.90;;;;;;5071269;28;20083;-83
2023/09/19 03:16:45;;;;;;;8.55;2.40;;;12.90;99.90;;;;;;5066309;28;20040;-84
2023/09/19 03:19:11;;;;;;;15.95;3.00;;;12.90;99.90;;;;;;5074435;28;20124;-85
2023/09/19 03:21:38;;;;;;;8.82;2.55;;;12.90;99.90;;;;;;5081904;28;20133;-85
2023/09/19 03:24:04;;;;;;;9.40;2.43;;;12.90;99.90;;;;;;5075938;28;20567;-84
2023/09/19 03:26:30;;;;;;;10.55;2.33;;;12.90;99.90;;;;;;5089854;28;20076;-83
2023/09/19 03:28:57;;;;;;;9.40;2.25;;;12.90;99.90;;;;;;5089187;28;20094;-84
2023/09/19 03:31:23;;;;;;;10.65;3.47;;;12.90;99.90;;;;;;5086516;28;20040;-83
2023/09/19 03:33:48;;;;;;;13.05;2.70;;;12.90;99.90;;;;;;5080890;28;20079;-84
2023/09/19 03:36:14;;;;;;;7.68;2.70;;;12.90;99.90;;;;;;5085121;28;20033;-83
2023/09/19 03:38:40;;;;;;;6.80;2.30;;;13.40;99.90;;;;;;5069423;28;20093;-84
2023/09/19 03:41:05;;;;;;;10.30;2.65;;;12.90;99.90;;;;;;5086394;28;20040;-84
2023/09/19 03:43:34;;;;;;;14.63;2.58;;;12.90;99.90;;;;;;5089092;28;20052;-84
2023/09/19 03:46:04;;;;;;;15.48;2.47;;;12.90;99.90;;;;;;5109769;28;20383;-82
2023/09/19 03:48:30;;;;;;;11.60;3.13;;;12.90;99.90;;;;;;5080567;28;20049;-82
2023/09/19 03:50:57;;;;;;;14.15;2.45;;;12.90;99.90;;;;;;5090753;28;20047;-84
2023/09/19 03:53:22;;;;;;;12.23;2.75;;;12.90;99.90;;;;;;5116655;27;20036;-85
2023/09/19 03:55:48;;;;;;;14.20;2.47;;;12.90;99.90;;;;;;5092059;28;20108;-84
2023/09/19 03:58:14;;;;;;;9.32;2.10;;;12.90;99.90;;;;;;5113523;27;20045;-81
2023/09/19 04:00:40;;;;;;;15.55;2.42;;;12.80;99.90;;;;;;5082953;28;20068;-84
2023/09/19 04:03:06;;;;;;;11.25;2.90;;;12.80;99.90;;;;;;5087432;28;20020;-83
2023/09/19 04:05:33;;;;;;;10.90;2.40;;;12.90;99.90;;;;;;5082402;28;20051;-81
2023/09/19 04:07:59;;;;;;;17.97;2.83;;;12.80;99.90;;;;;;5097641;28;20041;-83
2023/09/19 04:10:25;;;;;;;14.10;3.20;;;12.80;99.90;;;;;;5076420;28;20036;-83
2023/09/19 04:12:57;;;;;;;11.48;2.80;;;12.90;99.90;;;;;;5090574;28;20024;-83
2023/09/19 04:15:23;;;;;;;15.32;3.25;;;12.90;99.90;;;;;;5078535;28;20040;-84
2023/09/19 04:17:52;;;;;;;10.73;2.70;;;12.90;99.90;;;;;;5068749;28;20041;-83
2023/09/19 04:20:24;;;;;;;12.18;3.13;;;12.90;99.90;;;;;;5077591;28;20051;-84
2023/09/19 04:22:50;;;;;;;16.90;2.67;;;12.90;99.90;;;;;;5074763;28;20044;-84
2023/09/19 04:25:16;;;;;;;13.75;2.60;;;12.90;99.90;;;;;;5065000;28;20080;-86
2023/09/19 04:27:41;;;;;;;12.85;2.60;;;13.00;99.90;;;;;;5069971;28;20044;-84
2023/09/19 04:30:11;;;;;;;10.13;2.30;;;12.90;99.90;;;;;;5086368;28;20036;-84
2023/09/19 04:32:40;;;;;;;12.65;2.97;;;13.00;99.90;;;;;;5065671;28;20051;-84
2023/09/19 04:35:10;;;;;;;10.45;2.75;;;13.00;99.90;;;;;;5086126;28;20409;-86
2023/09/19 04:37:41;;;;;;;10.77;2.97;;;13.00;99.90;;;;;;5078827;28;20049;-85
2023/09/19 04:40:17;;;;;;;12.02;2.92;;;13.00;99.90;;;;;;5094867;28;20120;-85
2023/09/19 04:42:53;;;;;;;12.32;3.20;;;13.00;99.90;;;;;;5083346;28;20035;-85
2023/09/19 04:45:21;;;;;;;9.15;2.63;;;13.00;99.90;;;;;;5085071;28;20049;-84
2023/09/19 04:47:47;;;;;;;12.30;3.05;;;13.00;99.90;;;;;;5091098;28;20215;-84
2023/09/19 04:50:13;;;;;;;13.05;3.25;;;13.00;99.90;;;;;;5119381;27;20060;-84
2023/09/19 04:52:44;;;;;;;8.20;2.75;;;13.00;99.90;;;;;;5092692;28;20127;-85
2023/09/19 04:55:17;;;;;;;11.70;2.90;;;13.00;99.90;;;;;;5047121;28;20506;-86
2023/09/19 04:57:55;;;;;;;17.08;4.03;;;13.00;99.90;;;;;;5084992;28;20048;-84
2023/09/19 05:00:24;;;;;;;9.27;3.00;;;13.00;99.90;;;;;;5090252;28;20041;-82
2023/09/19 05:02:51;;;;;;;13.13;2.72;;;13.00;99.90;;;;;;5066300;28;20059;-84
2023/09/19 05:05:18;;;;;;;14.82;3.20;;;13.10;99.90;;;;;;5088537;28;20101;-84
2023/09/19 05:07:45;;;;;;;12.75;2.88;;;13.00;99.90;;;;;;5074915;28;20043;-84
2023/09/19 05:10:12;;;;;;;10.93;2.97;;;13.10;99.90;;;;;;5055263;28;20036;-84
2023/09/19 05:12:38;;;;;;;14.90;2.97;;;13.10;99.90;;;;;;5075853;28;20070;-84
2023/09/19 05:15:08;;;;;;;10.88;2.90;;;13.10;99.90;;;;;;5077783;28;20044;-85
2023/09/19 05:17:35;;;;;;;10.02;2.70;;;13.10;99.90;;;;;;5078573;28;20174;-83
2023/09/19 05:20:16;;;;;;;14.15;2.63;;;13.10;99.90;;;;;;5064588;28;20117;-85
2023/09/19 05:22:46;;;;;;;14.02;2.67;;;13.10;99.90;;;;;;5056625;28;20055;-87
2023/09/19 05:25:16;;;;;;;12.65;2.92;;;13.10;99.90;;;;;;5050769;28;20075;-85
2023/09/19 05:27:43;;;;;;;9.88;3.10;;;13.20;99.90;;;;;;5077484;28;20075;-84
2023/09/19 05:30:09;;;;;;;15.63;3.47;;;13.20;99.90;;;;;;5079748;28;20079;-85
2023/09/19 05:32:35;;;;;;;18.45;2.97;;;13.20;99.90;;;;;;5068695;28;20045;-84
2023/09/19 05:35:01;;;;;;;8.90;3.00;;;13.20;99.90;;;;;;5070706;28;20104;-83
2023/09/19 05:37:27;;;;;;;13.20;3.08;;;13.20;99.90;;;;;;5072964;28;20399;-85
2023/09/19 05:39:55;;;;;;;14.20;3.28;;;13.30;99.90;;;;;;5080059;28;20045;-83
2023/09/19 05:42:21;;;;;;;11.98;3.67;;;13.30;99.90;;;;;;5061753;28;20047;-83
2023/09/19 05:44:47;;;;;;;13.52;2.83;;;13.30;99.90;;;;;;5088456;28;20055;-84
2023/09/19 05:47:15;;;;;;;11.65;2.83;;;13.30;99.90;;;;;;5079502;28;20037;-83
2023/09/19 05:49:41;;;;;;;15.82;3.35;;;13.30;99.90;;;;;;5072525;28;20037;-83
2023/09/19 05:52:07;;;;;;;15.25;2.88;;;13.30;99.90;;;;;;5075181;28;20071;-85
2023/09/19 05:54:34;;;;;;;16.95;3.25;;;13.40;99.90;;;;;;5064826;28;20127;-85
2023/09/19 05:57:01;;;;;;;13.45;4.22;;;13.10;99.90;;;;;;5080509;28;20045;-85
2023/09/19 05:59:28;;;;;;;11.38;2.90;;;13.40;99.90;;;;;;5086303;28;20481;-84
2023/09/19 06:01:55;;;;;;;11.90;3.03;;;13.40;99.90;;;;;;5087380;28;20036;-85
2023/09/19 06:04:21;;;;;;;12.48;3.20;;;13.30;99.90;;;;;;5074180;28;20071;-82
2023/09/19 06:06:48;;;;;;;10.30;2.85;;;13.50;99.90;;;;;;5086236;28;20049;-83
2023/09/19 06:09:17;;;;;;;16.77;3.00;;;13.40;99.90;;;;;;5088918;28;20090;-83
2023/09/19 06:11:43;;;;;;;14.30;2.70;;;13.50;99.90;;;;;;5089290;28;20070;-83
2023/09/19 06:14:10;;;;;;;10.50;2.40;;;13.50;99.90;;;;;;5085750;28;20049;-85
2023/09/19 06:16:37;;;;;;;15.05;3.17;;;13.50;99.90;;;;;;5080621;28;20653;-81
2023/09/19 06:19:06;;;;;;;11.70;3.08;;;13.60;99.90;;;;;;5087558;28;20052;-83
2023/09/19 06:21:35;;;;;;;12.23;3.08;;;13.60;99.90;;;;;;5079976;28;20060;-81
2023/09/19 06:24:02;;;;;;;13.02;3.15;;;13.60;99.90;;;;;;5083382;28;20033;-84
2023/09/19 06:26:29;;;;;;;8.82;2.50;;;13.60;99.90;;;;;;5075761;28;20049;-85
2023/09/19 06:28:55;;;;;;;15.88;2.90;;;13.70;99.90;;;;;;5077925;28;20041;-84
2023/09/19 06:31:25;;;;;;;16.02;3.50;;;13.70;99.90;;;;;;5080589;28;20040;-83
2023/09/19 06:33:52;;;;;;;10.60;2.30;;;13.70;99.90;;;;;;5077633;28;20052;-83
2023/09/19 06:36:19;;;;;;;10.75;2.63;;;13.80;99.90;;;;;;5087577;28;20040;-86
2023/09/19 06:38:51;;;;;;;11.27;2.83;;;13.80;99.90;;;;;;5087499;28;20051;-84
2023/09/19 06:41:17;;;;;;;14.13;3.50;;;13.80;99.90;;;;;;5100745;28;20052;-84
2023/09/19 06:43:43;;;;;;;11.13;2.90;;;13.90;99.90;;;;;;5085819;28;20040;-86
2023/09/19 06:46:09;;;;;;;10.90;3.05;;;13.90;99.90;;;;;;5056144;28;20044;-84
2023/09/19 06:48:35;;;;;;;18.58;3.38;;;13.90;99.90;;;;;;5066258;28;20093;-86
2023/09/19 06:51:04;;;;;;;17.85;2.70;;;14.00;99.90;;;;;;5091715;28;20024;-84
2023/09/19 06:53:31;;;;;;;15.75;3.53;;;14.60;99.90;;;;;;5070018;28;20071;-86
2023/09/19 06:55:58;;;;;;;15.55;3.05;;;14.10;99.90;;;;;;5086996;28;20055;-83
2023/09/19 06:58:23;;;;;;;9.38;2.92;;;14.10;99.90;;;;;;5087171;28;20020;-85
2023/09/19 07:00:50;;;;;;;24.77;4.80;;;14.20;99.90;;;;;;5098867;28;20036;-84
2023/09/19 07:03:18;;;;;;;13.80;2.60;;;14.30;99.90;;;;;;5092539;28;20055;-84
2023/09/19 07:05:48;;;;;;;15.70;3.28;;;14.30;99.90;;;;;;5076024;28;20041;-85
2023/09/19 07:08:15;;;;;;;12.45;2.67;;;14.40;99.90;;;;;;5095129;28;20052;-82
2023/09/19 07:10:48;;;;;;;18.88;3.63;;;14.40;99.90;;;;;;5065379;28;20052;-84
2023/09/19 07:13:16;;;;;;;16.48;2.90;;;14.50;99.90;;;;;;5077714;28;20045;-84
2023/09/19 07:15:46;;;;;;;13.18;2.58;;;14.50;99.90;;;;;;5085423;28;20071;-84
2023/09/19 07:18:16;;;;;;;15.10;2.75;;;14.60;99.90;;;;;;5057707;28;20040;-84
2023/09/19 07:20:54;;;;;;;11.63;2.83;;;14.70;99.90;;;;;;5068753;28;20136;-86
2023/09/19 07:23:22;;;;;;;13.10;3.20;;;14.70;99.90;;;;;;5075410;28;20072;-82
2023/09/19 07:25:49;;;;;;;14.40;3.03;;;14.70;99.90;;;;;;5058123;28;20310;-84
2023/09/19 07:28:15;;;;;;;12.93;2.88;;;14.90;99.90;;;;;;5091151;28;20043;-84
2023/09/19 07:30:41;;;;;;;12.23;3.20;;;14.90;99.90;;;;;;5081899;28;20045;-84
2023/09/19 07:33:11;;;;;;;11.80;2.40;;;14.90;99.90;;;;;;5103987;28;20049;-84
2023/09/19 07:35:40;;;;;;;11.95;2.97;;;14.90;99.90;;;;;;5067773;28;20041;-83
2023/09/19 07:38:11;;;;;;;14.13;3.30;;;14.90;99.90;;;;;;5060785;28;20056;-81
2023/09/19 07:40:37;;;;;;;15.85;2.85;;;15.50;99.90;;;;;;5074033;28;20385;-82
2023/09/19 07:43:06;;;;;;;18.58;3.75;;;15.00;99.90;;;;;;5063541;28;20083;-83
2023/09/19 07:45:36;;;;;;;13.73;3.10;;;15.00;99.90;;;;;;5072509;28;20059;-81
2023/09/19 07:48:04;;;;;;;18.45;3.63;;;15.10;99.90;;;;;;5078815;28;20166;-84
2023/09/19 07:50:36;;;;;;;13.85;3.22;;;15.20;99.90;;;;;;5078290;28;20128;-84
2023/09/19 07:53:04;;;;;;;10.77;3.53;;;14.80;99.90;;;;;;5094177;28;20049;-83
2023/09/19 07:55:30;;;;;;;15.20;3.60;;;15.40;99.90;;;;;;5063955;28;20040;-83
2023/09/19 07:57:57;;;;;;;15.73;2.95;;;16.00;99.90;;;;;;5076699;28;20118;-84
2023/09/19 08:00:23;;;;;;;16.70;3.80;;;15.40;99.90;;;;;;5084563;28;20053;-83
2023/09/19 08:02:49;;;;;;;14.73;3.58;;;15.40;99.90;;;;;;5086167;28;20493;-84
2023/09/19 08:05:18;;;;;;;18.58;3.28;;;15.50;99.90;;;;;;5066573;28;20040;-82
2023/09/19 08:07:48;;;;;;;8.98;2.63;;;15.50;99.90;;;;;;5065905;28;20044;-85
2023/09/19 08:10:15;;;;;;;13.35;3.60;;;15.60;99.90;;;;;;5063257;28;20041;-82
2023/09/19 08:12:46;;;;;;;20.45;3.83;;;15.70;99.90;;;;;;5062798;28;20406;-82
2023/09/19 08:15:16;;;;;;;9.55;3.05;;;15.70;99.90;;;;;;5087977;28;20136;-82
2023/09/19 08:17:48;;;;;;;10.70;3.00;;;15.80;99.90;;;;;;5077024;28;20371;-82
2023/09/19 08:20:18;;;;;;;17.60;3.42;;;15.90;99.90;;;;;;5080990;28;20044;-82
2023/09/19 08:22:47;;;;;;;11.98;3.08;;;16.00;99.90;;;;;;5114276;28;20060;-82
2023/09/19 08:25:17;;;;;;;9.65;2.58;;;16.30;99.90;;;;;;5073969;28;20070;-82
2023/09/19 08:27:49;;;;;;;16.40;2.70;;;16.40;99.90;;;;;;5083382;28;20087;-83
2023/09/19 08:30:18;;;;;;;14.13;3.53;;;16.60;99.90;;;;;;5082092;28;20177;-83
2023/09/19 08:32:44;;;;;;;10.52;3.42;;;16.70;99.90;;;;;;5083048;28;20368;-83
2023/09/19 08:35:13;;;;;;;14.02;3.10;;;16.70;99.90;;;;;;5081986;28;20039;-83
2023/09/19 08:37:38;;;;;;;17.45;3.03;;;16.70;99.90;;;;;;5084561;28;20041;-81
2023/09/19 08:40:08;;;;;;;9.15;2.83;;;16.80;99.90;;;;;;5075383;28;20067;-80
2023/09/19 08:42:48;;;;;;;13.55;2.80;;;16.90;99.90;;;;;;5082240;28;20051;-81
2023/09/19 08:45:14;;;;;;;9.68;2.85;;;17.00;99.90;;;;;;5073767;28;20045;-80
2023/09/19 08:47:48;;;;;;;14.25;3.17;;;17.00;99.90;;;;;;5082002;28;20398;-82
2023/09/19 08:50:28;;;;;;;15.43;3.55;;;17.10;99.90;;;;;;5070544;28;20048;-81
2023/09/19 08:52:56;;;;;;;13.27;3.30;;;17.10;99.90;;;;;;5065185;28;20056;-80
2023/09/19 08:55:27;;;;;;;8.20;2.55;;;17.20;99.90;;;;;;5092091;28;20046;-81
2023/09/19 08:58:01;;;;;;;8.25;2.92;;;17.20;99.90;;;;;;5084263;28;20104;-81
2023/09/19 09:00:51;;;;;;;12.00;3.08;;;17.30;99.90;;;;;;5070034;28;20052;-83
2023/09/19 09:03:21;;;;;;;10.93;3.03;;;17.30;99.90;;;;;;5101412;28;20459;-81
2023/09/19 09:05:50;;;;;;;8.45;2.60;;;17.30;99.90;;;;;;5051247;28;20044;-81
2023/09/19 09:08:16;;;;;;;21.10;4.63;;;17.30;99.90;;;;;;5050330;28;20045;-82
2023/09/19 09:10:47;;;;;;;9.90;3.03;;;17.40;99.90;;;;;;5068505;28;20067;-84
2023/09/19 09:13:15;;;;;;;12.68;3.47;;;17.20;99.90;;;;;;5061033;28;20098;-82
2023/09/19 09:15:44;;;;;;;11.32;2.90;;;17.40;99.90;;;;;;5044454;28;20049;-83
2023/09/19 09:18:10;;;;;;;13.75;3.13;;;17.20;99.90;;;;;;5079497;28;20126;-84
2023/09/19 09:20:36;;;;;;;15.65;3.35;;;17.30;99.90;;;;;;5081595;28;20080;-81
2023/09/19 09:23:06;;;;;;;13.93;3.40;;;17.30;99.90;;;;;;5074380;28;20041;-82
2023/09/19 09:26:09;;;;;;;16.35;4.07;;;17.30;99.90;;;;;;5075222;28;20173;-81
2023/09/19 09:28:38;;;;;;;14.27;3.97;;;17.30;99.90;;;;;;5043640;28;20045;-82
2023/09/19 09:31:09;;;;;;;19.48;4.00;;;17.30;99.90;;;;;;5063151;28;20040;-80
2023/09/19 09:33:39;;;;;;;13.43;3.38;;;17.30;99.90;;;;;;5062883;28;20044;-85
2023/09/19 09:36:06;;;;;;;11.95;3.60;;;17.30;99.90;;;;;;5070636;28;20044;-81
2023/09/19 09:38:55;;;;;;;11.83;3.27;;;17.30;99.90;;;;;;5125808;28;20390;-81
2023/09/19 09:41:37;;;;;;;15.30;4.57;;;17.30;99.90;;;;;;5078375;28;20036;-82
2023/09/19 09:44:23;;;;;;;16.90;3.80;;;17.40;99.90;;;;;;5070655;28;20112;-80
2023/09/19 09:49:27;;;;;;;9.98;3.05;;;17.80;99.90;;;;;;5129360;27;20044;-80
2023/09/19 09:52:07;;;;;;;14.77;3.72;;;17.90;99.90;;;;;;5077040;28;20109;-86
2023/09/19 09:55:07;;;;;;;15.80;3.85;;;18.00;99.90;;;;;;5103455;28;20067;-79
2023/09/19 09:57:35;;;;;;;20.42;3.58;;;17.90;99.90;;;;;;5074679;28;20104;-81
2023/09/19 10:00:23;;;;;;;13.68;3.55;;;17.90;99.90;;;;;;5092878;28;20045;-82
2023/09/19 10:02:48;;;;;;;17.17;3.45;;;17.90;99.90;;;;;;5086422;28;20057;-81
2023/09/19 10:05:27;;;;;;;13.13;3.05;;;18.00;99.90;;;;;;5092204;28;20067;-79
2023/09/19 10:07:53;;;;;;;14.63;3.28;;;18.30;99.90;;;;;;5090714;28;20048;-80
2023/09/19 10:10:39;;;;;;;15.82;3.60;;;18.40;99.90;;;;;;5101416;28;20047;-81
2023/09/19 10:13:07;;;;;;;16.85;3.40;;;18.60;99.90;;;;;;5089875;28;20052;-83
2023/09/19 10:15:34;;;;;;;13.98;3.85;;;18.70;99.90;;;;;;5089116;28;20063;-79
2023/09/19 10:18:08;;;;;;;18.20;3.85;;;18.70;99.90;;;;;;5086140;28;20127;-80
2023/09/19 10:20:38;;;;;;;16.85;3.67;;;18.80;99.90;;;;;;5067715;28;20165;-83
2023/09/19 10:23:14;;;;;;;13.45;3.28;;;18.80;99.90;;;;;;5082034;28;20382;-80
2023/09/19 10:25:42;;;;;;;16.98;3.17;;;18.80;99.90;;;;;;5068179;28;20037;-81
2023/09/19 10:28:13;;;;;;;13.80;3.45;;;18.90;99.90;;;;;;5088112;28;20048;-78
2023/09/19 10:30:47;;;;;;;13.68;3.70;;;18.90;99.90;;;;;;5078811;28;20056;-82
2023/09/19 10:33:15;;;;;;;13.95;3.35;;;18.80;99.90;;;;;;5078328;28;20044;-82
2023/09/19 10:35:45;;;;;;;16.88;3.67;;;18.70;99.90;;;;;;5044217;28;20479;-79
2023/09/19 10:38:14;;;;;;;16.02;3.15;;;18.70;99.90;;;;;;5061828;28;20375;-79
2023/09/19 10:40:43;;;;;;;15.10;4.18;;;18.80;99.90;;;;;;5059845;28;20052;-80
2023/09/19 10:43:17;;;;;;;14.95;3.42;;;18.90;99.90;;;;;;5075008;28;20479;-82
2023/09/19 10:45:52;;;;;;;14.57;3.53;;;19.20;99.90;;;;;;5065260;28;20100;-82
2023/09/19 10:48:19;;;;;;;17.17;3.75;;;19.30;99.90;;;;;;5114296;28;20498;-81
2023/09/19 10:50:50;;;;;;;15.82;3.67;;;19.20;99.90;;;;;;5074542;28;20544;-80
2023/09/19 10:53:17;;;;;;;14.52;3.40;;;19.00;99.90;;;;;;5065359;28;20033;-80
2023/09/19 10:55:54;;;;;;;12.77;3.67;;;18.80;99.90;;;;;;5083691;28;20036;-81
2023/09/19 10:58:28;;;;;;;16.55;3.47;;;18.70;99.90;;;;;;5091735;28;20036;-81
2023/09/19 11:01:05;;;;;;;16.15;3.53;;;18.60;99.90;;;;;;5069821;28;20075;-80
2023/09/19 11:03:32;;;;;;;13.82;3.50;;;18.40;99.90;;;;;;5079319;28;20043;-81
2023/09/19 11:06:04;;;;;;;17.67;4.07;;;18.50;99.90;;;;;;5079910;28;20041;-79
2023/09/19 11:08:51;;;;;;;13.10;3.58;;;18.60;99.90;;;;;;5061452;28;20103;-80
2023/09/19 11:11:38;;;;;;;16.02;3.92;;;18.60;99.90;;;;;;5046776;28;20138;-80
2023/09/19 11:14:23;;;;;;;17.90;3.22;;;18.50;99.90;;;;;;5087139;28;20062;-79
2023/09/19 11:17:11;;;;;;;13.60;3.63;;;18.40;99.90;;;;;;5096121;28;20048;-80
2023/09/19 11:22:58;;;;;;;17.70;3.47;;;18.40;99.90;;;;;;5044878;28;20071;-81
2023/09/19 11:25:30;;;;;;;14.55;3.53;;;18.40;99.90;;;;;;5091475;28;20059;-79
2023/09/19 11:28:21;;;;;;;18.00;4.15;;;18.30;99.90;;;;;;5086985;28;20040;-80
2023/09/19 11:30:49;;;;;;;21.02;3.65;;;18.40;99.90;;;;;;5076425;28;20499;-82
2023/09/19 11:33:31;;;;;;;18.42;3.60;;;18.30;99.90;;;;;;5082890;28;20072;-83
2023/09/19 11:36:09;;;;;;;14.95;3.35;;;18.30;99.90;;;;;;5083248;28;20058;-80
2023/09/19 11:38:55;;;;;;;11.70;3.30;;;18.20;99.90;;;;;;5078519;28;20059;-80
2023/09/19 11:44:16;;;;;;;13.93;3.33;;;18.20;99.90;;;;;;5088032;28;20097;-79
2023/09/19 11:46:51;;;;;;;20.98;3.65;;;18.40;99.90;;;;;;5084220;28;20057;-81
2023/09/19 11:49:33;;;;;;;13.52;3.63;;;18.40;99.90;;;;;;5064170;28;20075;-81
2023/09/19 11:52:08;;;;;;;14.80;3.42;;;18.40;99.90;;;;;;5069831;28;20447;-79
2023/09/19 11:54:39;;;;;;;14.73;3.45;;;18.40;99.90;;;;;;5086682;28;20048;-81
2023/09/19 11:57:07;;;;;;;19.08;3.72;;;18.40;99.90;;;;;;5088657;28;20096;-81
2023/09/19 11:59:39;;;;;;;15.35;2.95;;;18.50;99.90;;;;;;5071661;28;20116;-79
2023/09/19 12:02:08;;;;;;;10.52;2.75;;;18.30;99.90;;;;;;5084276;28;20051;-79
2023/09/19 12:04:45;;;;;;;14.05;3.40;;;18.30;99.90;;;;;;5067675;28;20391;-80
2023/09/19 12:07:18;;;;;;;14.73;3.15;;;18.20;99.90;;;;;;5097168;28;20044;-80
2023/09/19 12:09:47;;;;;;;14.65;3.92;;;18.10;99.90;;;;;;5082319;28;20529;-79
2023/09/19 12:12:42;;;;;;;18.52;3.92;;;18.10;99.90;;;;;;5081535;28;20041;-80
2023/09/19 12:15:08;;;;;;;17.08;3.42;;;17.90;99.90;;;;;;5081107;28;20052;-80
2023/09/19 12:17:42;;;;;;;16.10;3.40;;;17.90;99.90;;;;;;5071950;28;20076;-80
2023/09/19 12:20:16;;;;;;;12.52;2.92;;;17.90;99.90;;;;;;5111367;28;20093;-79
2023/09/19 12:22:43;;;;;;;15.82;3.40;;;17.90;99.90;;;;;;5099627;28;20056;-81
2023/09/19 12:25:11;;;;;;;20.38;4.10;;;17.80;99.90;;;;;;5087420;28;20044;-81
2023/09/19 12:27:56;;;;;;;;;;;17.80;99.90;;;;;;5117925;28;20053;-79
2023/09/19 12:30:28;;;;;;;12.15;3.33;;;17.80;99.90;;;;;;5095898;28;19920;-81
2023/09/19 12:32:55;;;;;;;11.13;3.17;;;17.80;99.90;;;;;;5089083;28;20505;-79
2023/09/19 12:35:30;;;;;;;14.75;3.03;;;17.80;99.90;;;;;;5072144;28;20075;-81
2023/09/19 12:37:56;;;;;;;19.60;3.42;;;17.70;99.90;;;;;;5089858;28;20076;-81
2023/09/19 12:40:27;;;;;;;13.23;3.20;;;17.60;99.90;;;;;;5090271;28;20045;-81
2023/09/19 12:42:58;;;;;;;15.63;4.00;;;17.50;99.90;;;;;;5087747;28;20413;-77
2023/09/19 12:45:25;;;;;;;13.27;2.90;;;17.60;99.90;;;;;;5084452;28;20383;-80
2023/09/19 12:48:38;;;;;;;13.65;2.90;;;17.50;99.90;;;;;;5073716;28;20059;-79
2023/09/19 12:51:12;;;;;;;14.57;3.13;;;17.60;99.90;;;;;;5069506;28;20111;-81
2023/09/19 12:53:48;;;;;;;15.88;3.33;;;17.60;99.90;;;;;;5079766;28;20062;-80
2023/09/19 12:56:16;;;;;;;9.85;2.70;;;17.60;99.90;;;;;;5069059;28;20033;-79
2023/09/19 12:58:55;;;;;;;12.40;3.13;;;17.60;99.90;;;;;;5101814;28;20037;-79
2023/09/19 13:01:27;;;;;;;14.27;3.03;;;17.60;99.90;;;;;;5070713;28;20056;-81
2023/09/19 13:04:19;;;;;;;13.93;2.63;;;17.70;99.90;;;;;;5073260;28;20266;-80